Time;durP1;ratioP1;P1;durP2;ratioP2;P2;SDS_P1;SDS_P2;PMS_P1;PMS_P2;Temp;Humidity;BMP_temperature;BMP_pressure;BME280_temperature;BME280_humidity;BME280_pressure;Samples;Min_cycle;Max_cycle;Signal;HPM_P1;HPM_P2
2022/03/30 00:00:51;;;;;;;64.90;39.00;;;5.20;24.10;;;;;;5014029;28;20175;-65
2022/03/30 00:03:17;;;;;;;71.10;40.03;;;5.10;26.80;;;;;;5009878;28;20184;-64
2022/03/30 00:05:42;;;;;;;66.80;39.20;;;5.10;31.20;;;;;;5013927;28;20180;-66
2022/03/30 00:08:08;;;;;;;70.23;40.83;;;5.00;36.50;;;;;;5031628;28;20218;-65
2022/03/30 00:10:34;;;;;;;65.97;39.00;;;5.00;45.50;;;;;;5031810;28;20277;-65
2022/03/30 00:13:00;;;;;;;66.72;38.17;;;5.00;48.00;;;;;;5032047;28;20187;-64
2022/03/30 00:15:27;;;;;;;69.53;38.75;;;5.00;50.30;;;;;;5017746;28;20188;-64
2022/03/30 00:17:53;;;;;;;62.55;36.83;;;5.00;52.20;;;;;;5031712;28;20325;-64
2022/03/30 00:20:19;;;;;;;65.10;36.50;;;5.00;51.70;;;;;;5031356;28;20298;-64
2022/03/30 00:22:45;;;;;;;62.78;36.40;;;4.90;53.20;;;;;;5031724;28;20418;-64
2022/03/30 00:25:12;;;;;;;68.63;36.70;;;4.90;53.40;;;;;;5017239;28;20204;-65
2022/03/30 00:27:39;;;;;;;66.30;37.15;;;4.90;54.80;;;;;;5028286;28;20229;-64
2022/03/30 00:30:05;;;;;;;63.78;35.45;;;4.90;57.50;;;;;;5046997;28;20245;-65
2022/03/30 00:32:32;;;;;;;63.42;36.03;;;4.90;57.60;;;;;;5018191;28;20242;-65
2022/03/30 00:34:57;;;;;;;70.28;37.80;;;4.90;63.50;;;;;;5019899;28;20246;-64
2022/03/30 00:37:23;;;;;;;59.10;35.53;;;4.80;61.40;;;;;;5029646;28;20199;-64
2022/03/30 00:39:49;;;;;;;70.57;36.03;;;4.80;61.00;;;;;;5022559;28;20225;-65
2022/03/30 00:42:19;;;;;;;64.67;36.83;;;4.80;62.30;;;;;;5031287;28;20270;-65
2022/03/30 00:44:46;;;;;;;64.90;36.72;;;4.80;62.00;;;;;;5003147;28;20583;-65
2022/03/30 00:47:26;;;;;;;64.97;37.05;;;4.80;67.50;;;;;;5020125;28;20172;-65
2022/03/30 00:49:53;;;;;;;60.03;35.15;;;4.70;67.40;;;;;;5016788;28;20198;-65
2022/03/30 00:52:23;;;;;;;66.78;37.60;;;4.70;72.80;;;;;;5015232;28;20699;-65
2022/03/30 00:54:50;;;;;;;66.05;35.35;;;4.70;80.20;;;;;;5043343;28;20578;-64
2022/03/30 00:57:19;;;;;;;72.75;36.60;;;4.70;79.50;;;;;;5015125;28;20183;-64
2022/03/30 00:59:45;;;;;;;66.15;38.15;;;4.60;78.50;;;;;;5017300;28;20654;-63
2022/03/30 01:02:10;;;;;;;66.87;37.67;;;4.50;85.90;;;;;;4998250;28;20203;-65
2022/03/30 01:04:36;;;;;;;67.83;35.57;;;4.50;89.70;;;;;;5020161;28;20245;-65
2022/03/30 01:07:02;;;;;;;69.77;36.77;;;4.50;90.50;;;;;;5029674;28;20195;-65
2022/03/30 01:09:29;;;;;;;66.30;36.07;;;4.40;92.00;;;;;;5020784;28;20653;-64
2022/03/30 01:11:55;;;;;;;63.03;34.50;;;4.50;95.10;;;;;;5011121;28;20233;-65
2022/03/30 01:14:22;;;;;;;65.35;35.08;;;4.40;95.40;;;;;;5016660;28;20194;-63
2022/03/30 01:16:48;;;;;;;61.67;34.90;;;4.40;95.90;;;;;;5022343;28;20275;-63
2022/03/30 01:19:14;;;;;;;59.97;36.03;;;4.40;95.40;;;;;;5015636;28;20265;-64
2022/03/30 01:21:41;;;;;;;69.03;34.13;;;4.40;95.90;;;;;;5006813;28;20436;-64
2022/03/30 01:24:09;;;;;;;62.03;35.00;;;4.40;96.80;;;;;;5011440;28;20191;-64
2022/03/30 01:26:35;;;;;;;68.22;36.33;;;4.50;98.10;;;;;;5020605;28;20187;-64
2022/03/30 01:32:24;;;;;;;69.80;38.03;;;4.50;98.70;;;;;;5020012;28;20225;-64
2022/03/30 01:34:37;;;;;;;64.30;35.17;;;4.60;98.70;;;;;;5021161;28;20207;-65
2022/03/30 01:37:04;;;;;;;68.03;36.60;;;4.60;97.70;;;;;;5022828;28;20531;-65
2022/03/30 01:39:29;;;;;;;62.40;34.90;;;4.60;96.40;;;;;;5023887;28;20260;-65
2022/03/30 01:41:55;;;;;;;61.87;34.70;;;4.60;95.90;;;;;;5013665;28;20204;-64
2022/03/30 01:44:21;;;;;;;66.83;36.30;;;4.60;96.80;;;;;;5009756;28;20504;-64
2022/03/30 01:46:46;;;;;;;65.17;36.13;;;4.60;94.60;;;;;;5010646;28;20545;-64
2022/03/30 01:49:12;;;;;;;64.80;36.27;;;4.60;94.30;;;;;;5010153;28;20196;-64
2022/03/30 01:51:37;;;;;;;65.13;36.27;;;4.60;92.30;;;;;;5023980;28;20195;-64
2022/03/30 01:54:03;;;;;;;62.37;34.30;;;4.50;92.50;;;;;;5022065;28;20239;-65
2022/03/30 01:56:28;;;;;;;62.03;34.50;;;4.50;93.20;;;;;;5022892;28;20202;-64
2022/03/30 01:58:54;;;;;;;73.33;36.40;;;4.60;93.50;;;;;;5016076;28;20210;-65
2022/03/30 02:01:20;;;;;;;66.13;33.73;;;4.60;94.70;;;;;;5016225;28;20191;-64
2022/03/30 02:03:46;;;;;;;68.07;34.93;;;4.50;92.20;;;;;;5017855;28;20214;-64
2022/03/30 02:06:12;;;;;;;63.23;34.53;;;4.50;91.90;;;;;;5022099;28;20433;-65
2022/03/30 02:08:38;;;;;;;71.53;33.58;;;4.50;91.00;;;;;;5013368;28;20427;-65
2022/03/30 02:11:04;;;;;;;67.38;36.58;;;4.50;92.50;;;;;;5029968;28;20245;-65
2022/03/30 02:13:29;;;;;;;65.10;35.13;;;4.50;92.30;;;;;;5017349;28;20701;-63
2022/03/30 02:15:55;;;;;;;65.20;34.20;;;4.60;93.80;;;;;;5016500;28;20310;-64
2022/03/30 02:18:21;;;;;;;65.70;34.10;;;4.60;94.00;;;;;;5022888;28;20579;-65
2022/03/30 02:20:46;;;;;;;72.77;36.07;;;4.60;92.50;;;;;;5021790;28;20418;-65
2022/03/30 02:23:12;;;;;;;69.23;35.07;;;4.60;91.60;;;;;;5009714;28;20183;-64
2022/03/30 02:25:37;;;;;;;62.13;33.97;;;4.60;93.20;;;;;;5025982;28;20186;-64
2022/03/30 02:28:03;;;;;;;66.17;34.40;;;4.60;91.80;;;;;;5029463;28;20179;-64
2022/03/30 02:30:29;;;;;;;64.25;34.70;;;4.60;90.00;;;;;;5013774;28;20677;-65
2022/03/30 02:32:57;;;;;;;60.20;34.15;;;4.60;86.60;;;;;;5020694;28;20623;-65
2022/03/30 02:35:23;;;;;;;63.13;34.85;;;4.60;85.30;;;;;;5022673;28;20317;-64
2022/03/30 02:37:49;;;;;;;61.13;34.67;;;4.50;81.70;;;;;;5022866;28;20279;-64
2022/03/30 02:40:15;;;;;;;65.13;33.37;;;4.50;85.10;;;;;;5009360;28;20466;-64
2022/03/30 02:42:40;;;;;;;63.43;32.93;;;4.60;85.50;;;;;;5008564;28;20500;-64
2022/03/30 02:45:06;;;;;;;64.63;33.50;;;4.50;86.00;;;;;;5009594;28;20188;-64
2022/03/30 02:50:16;;;;;;;63.38;33.80;;;4.50;80.60;;;;;;5013696;28;20198;-64
2022/03/30 02:52:42;;;;;;;65.27;33.70;;;4.50;84.50;;;;;;5016049;28;20270;-64
2022/03/30 02:55:08;;;;;;;59.03;32.33;;;4.50;89.40;;;;;;5015161;28;20682;-64
2022/03/30 02:57:34;;;;;;;58.53;32.20;;;4.50;90.50;;;;;;4999032;28;20481;-63
2022/03/30 02:59:59;;;;;;;68.03;33.77;;;4.50;89.00;;;;;;4991735;28;20463;-64
2022/03/30 03:02:25;;;;;;;63.47;33.80;;;4.60;87.20;;;;;;5007926;28;20195;-63
2022/03/30 03:04:51;;;;;;;61.95;34.47;;;4.50;84.70;;;;;;5009153;28;20229;-63
2022/03/30 03:07:17;;;;;;;58.97;32.73;;;4.60;85.80;;;;;;5009412;28;20176;-64
2022/03/30 03:09:42;;;;;;;66.73;32.10;;;4.60;85.20;;;;;;5008524;28;20164;-65
2022/03/30 03:12:08;;;;;;;66.93;33.80;;;4.60;82.30;;;;;;5009448;28;20171;-64
2022/03/30 03:14:34;;;;;;;60.87;32.67;;;4.60;73.30;;;;;;5009122;28;20245;-64
2022/03/30 03:16:59;;;;;;;56.93;32.07;;;4.60;75.10;;;;;;4996379;28;20477;-64
2022/03/30 03:19:25;;;;;;;55.77;30.60;;;4.60;76.10;;;;;;4989647;28;20204;-64
2022/03/30 03:21:50;;;;;;;54.00;30.80;;;4.60;83.20;;;;;;5008233;28;20180;-64
2022/03/30 03:24:16;;;;;;;55.97;32.00;;;4.60;79.70;;;;;;5001129;28;20268;-63
2022/03/30 03:26:41;;;;;;;60.07;31.10;;;4.70;80.90;;;;;;4995500;28;20167;-63
2022/03/30 03:29:07;;;;;;;53.47;31.40;;;4.70;81.60;;;;;;5008597;28;20191;-64
2022/03/30 03:31:32;;;;;;;54.57;30.70;;;4.80;77.50;;;;;;5009836;28;20241;-64
2022/03/30 03:33:58;;;;;;;61.60;30.53;;;4.80;74.40;;;;;;5013084;28;20208;-64
2022/03/30 03:36:24;;;;;;;52.10;31.23;;;4.90;69.70;;;;;;5012814;28;20524;-64
2022/03/30 03:38:49;;;;;;;56.03;31.10;;;4.90;68.20;;;;;;5001812;28;20455;-63
2022/03/30 03:41:15;;;;;;;57.10;31.10;;;5.00;68.90;;;;;;5006898;28;20744;-63
2022/03/30 03:43:41;;;;;;;57.17;32.70;;;5.00;62.30;;;;;;5012612;28;20184;-64
2022/03/30 03:46:07;;;;;;;52.27;31.50;;;5.00;58.40;;;;;;5011980;28;20557;-63
2022/03/30 03:48:32;;;;;;;57.00;31.00;;;5.10;58.10;;;;;;5006163;28;20430;-64
2022/03/30 03:50:58;;;;;;;51.87;30.03;;;5.10;53.60;;;;;;5008398;28;20188;-63
2022/03/30 03:53:24;;;;;;;49.50;29.60;;;5.20;49.40;;;;;;5012467;28;20277;-63
2022/03/30 03:55:50;;;;;;;53.03;29.93;;;5.20;46.70;;;;;;5012123;28;20449;-64
2022/03/30 03:58:15;;;;;;;53.97;32.03;;;5.10;43.50;;;;;;5028349;28;20191;-64
2022/03/30 04:00:41;;;;;;;49.17;29.63;;;5.10;44.80;;;;;;5020831;28;20438;-63
2022/03/30 04:03:07;;;;;;;57.20;30.57;;;5.10;45.50;;;;;;5026645;28;20219;-63
2022/03/30 04:05:32;;;;;;;58.53;31.50;;;5.10;45.80;;;;;;5009076;28;20280;-64
2022/03/30 04:07:58;;;;;;;57.60;32.27;;;5.10;47.40;;;;;;5009354;28;20187;-64
2022/03/30 04:10:24;;;;;;;55.10;32.17;;;5.10;46.90;;;;;;5012124;28;20442;-64
2022/03/30 04:12:49;;;;;;;54.73;31.40;;;5.10;46.10;;;;;;5012185;28;20184;-64
2022/03/30 04:15:15;;;;;;;55.63;31.50;;;5.20;46.40;;;;;;5025071;28;20322;-63
2022/03/30 04:17:47;;;;;;;54.60;29.87;;;5.20;49.70;;;;;;5017216;28;20192;-64
2022/03/30 04:20:14;;;;;;;50.53;30.63;;;5.20;48.70;;;;;;5022800;28;20562;-63
2022/03/30 04:22:41;;;;;;;52.90;30.75;;;5.30;46.60;;;;;;5003002;28;20187;-63
2022/03/30 04:25:07;;;;;;;50.00;28.90;;;5.30;44.80;;;;;;5019157;28;20255;-64
2022/03/30 04:27:33;;;;;;;48.88;29.77;;;5.30;40.70;;;;;;5021124;28;20533;-64
2022/03/30 04:30:00;;;;;;;47.90;28.33;;;5.40;35.60;;;;;;5018382;28;20183;-64
2022/03/30 04:32:25;;;;;;;52.60;30.00;;;5.40;31.90;;;;;;5029987;28;20190;-63
2022/03/30 04:34:51;;;;;;;55.07;30.97;;;5.40;32.30;;;;;;5020484;28;20198;-64
2022/03/30 04:37:16;;;;;;;52.03;30.47;;;5.40;30.00;;;;;;5015933;28;20230;-64
2022/03/30 04:39:42;;;;;;;50.73;29.77;;;5.20;25.50;;;;;;5006060;28;20284;-63
2022/03/30 04:42:08;;;;;;;49.30;29.53;;;5.20;31.00;;;;;;5014987;28;20179;-63
2022/03/30 04:44:33;;;;;;;54.90;31.47;;;5.20;37.90;;;;;;5020654;28;20199;-63
2022/03/30 04:46:59;;;;;;;52.43;31.90;;;5.20;43.90;;;;;;5015451;28;20654;-65
2022/03/30 04:49:24;;;;;;;50.87;30.03;;;5.20;42.90;;;;;;5021573;28;20188;-66
2022/03/30 04:51:50;;;;;;;51.60;30.90;;;5.30;45.90;;;;;;5011863;28;20183;-65
2022/03/30 04:54:17;;;;;;;53.97;29.73;;;5.40;49.70;;;;;;5021078;28;20228;-65
2022/03/30 04:56:43;;;;;;;50.17;29.70;;;5.30;50.50;;;;;;5010179;28;20204;-65
2022/03/30 04:59:08;;;;;;;52.27;30.50;;;5.30;49.50;;;;;;5021586;28;20662;-63
2022/03/30 05:01:35;;;;;;;50.33;31.30;;;5.30;52.80;;;;;;5011971;28;20202;-65
2022/03/30 05:04:01;;;;;;;55.17;30.38;;;5.30;53.20;;;;;;5016222;28;20309;-59
2022/03/30 05:06:26;;;;;;;52.10;30.30;;;5.30;55.00;;;;;;5017379;28;20290;-58
2022/03/30 05:08:52;;;;;;;64.60;37.37;;;5.30;54.70;;;;;;5016047;28;20191;-58
2022/03/30 05:11:17;;;;;;;57.23;35.37;;;5.40;53.70;;;;;;5021140;28;20225;-58
2022/03/30 05:13:43;;;;;;;55.20;30.93;;;5.40;52.10;;;;;;5029791;28;20206;-56
2022/03/30 05:16:08;;;;;;;55.13;30.33;;;5.30;49.70;;;;;;5020300;28;20202;-57
2022/03/30 05:18:34;;;;;;;51.73;30.87;;;5.30;50.80;;;;;;5006420;28;20576;-58
2022/03/30 05:21:00;;;;;;;50.23;29.20;;;5.30;52.90;;;;;;5016610;28;20601;-59
2022/03/30 05:23:25;;;;;;;53.37;29.80;;;5.30;53.20;;;;;;5018164;28;20687;-57
2022/03/30 05:25:51;;;;;;;51.70;30.30;;;5.30;53.50;;;;;;5010545;28;20438;-58
2022/03/30 05:28:17;;;;;;;47.63;29.90;;;5.30;52.60;;;;;;5018584;28;20298;-59
2022/03/30 05:30:42;;;;;;;57.43;31.60;;;5.20;55.00;;;;;;5015299;28;20275;-57
2022/03/30 05:33:08;;;;;;;56.17;32.50;;;5.20;61.30;;;;;;5010066;28;20188;-58
2022/03/30 05:35:33;;;;;;;54.93;31.07;;;5.20;69.90;;;;;;5021039;28;20274;-59
2022/03/30 05:37:59;;;;;;;57.60;30.90;;;5.10;75.20;;;;;;5026027;28;20253;-58
2022/03/30 05:40:24;;;;;;;57.10;31.87;;;5.10;78.00;;;;;;5020132;28;20976;-59
2022/03/30 05:42:50;;;;;;;55.40;31.40;;;5.00;81.30;;;;;;5014167;28;20210;-57
2022/03/30 05:45:15;;;;;;;54.37;30.30;;;5.00;86.90;;;;;;5022382;28;20199;-60
2022/03/30 05:47:42;;;;;;;59.17;32.33;;;5.00;91.50;;;;;;5006890;28;20531;-59
2022/03/30 05:50:09;;;;;;;61.58;33.35;;;5.00;95.10;;;;;;5016003;28;20282;-58
2022/03/30 05:52:34;;;;;;;67.88;32.50;;;5.00;98.40;;;;;;5015368;28;20186;-58
2022/03/30 05:55:00;;;;;;;54.33;30.33;;;5.10;99.90;;;;;;5009201;28;20232;-59
2022/03/30 05:57:25;;;;;;;60.97;32.80;;;5.20;99.90;;;;;;5010583;28;20184;-59
2022/03/30 05:59:52;;;;;;;58.13;32.67;;;5.30;99.90;;;;;;5009718;28;20210;-58
2022/03/30 06:02:18;;;;;;;53.95;32.00;;;5.30;99.90;;;;;;5007479;28;20199;-55
2022/03/30 06:04:49;;;;;;;56.00;32.10;;;5.40;99.90;;;;;;5010055;28;20168;-60
2022/03/30 06:07:15;;;;;;;57.40;32.97;;;5.40;97.60;;;;;;5010192;28;20397;-58
2022/03/30 06:09:40;;;;;;;62.57;34.00;;;5.40;98.90;;;;;;5004498;28;20318;-60
2022/03/30 06:12:07;;;;;;;59.47;33.50;;;5.50;96.90;;;;;;4990610;28;20411;-59
2022/03/30 06:14:33;;;;;;;60.22;33.28;;;5.60;94.90;;;;;;4989978;28;20206;-58
2022/03/30 06:17:00;;;;;;;56.35;32.67;;;5.50;91.90;;;;;;5003208;28;20183;-59
2022/03/30 06:19:26;;;;;;;55.58;33.05;;;5.60;90.60;;;;;;5009549;28;20231;-57
2022/03/30 06:21:52;;;;;;;56.45;31.98;;;5.60;88.50;;;;;;5009524;28;20175;-58
2022/03/30 06:24:17;;;;;;;66.30;33.53;;;5.70;91.30;;;;;;5004068;28;20536;-58
2022/03/30 06:26:43;;;;;;;59.07;33.30;;;5.70;92.10;;;;;;5008247;28;20634;-59
2022/03/30 06:29:09;;;;;;;59.15;33.47;;;5.80;90.10;;;;;;5008671;28;20179;-58
2022/03/30 06:31:35;;;;;;;56.27;31.57;;;5.90;87.00;;;;;;5008601;28;20403;-58
2022/03/30 06:34:02;;;;;;;59.88;33.10;;;6.00;83.80;;;;;;5011013;28;20921;-59
2022/03/30 06:36:28;;;;;;;56.13;32.15;;;6.10;79.40;;;;;;5007156;28;20186;-59
2022/03/30 06:38:54;;;;;;;58.57;33.40;;;6.10;70.00;;;;;;5008713;28;20659;-59
2022/03/30 06:41:19;;;;;;;52.73;31.60;;;6.20;61.30;;;;;;5010362;28;20432;-59
2022/03/30 06:43:46;;;;;;;53.87;30.40;;;6.30;56.00;;;;;;5008719;28;20263;-59
2022/03/30 06:46:16;;;;;;;56.55;30.95;;;6.40;54.00;;;;;;5009711;28;20172;-59
2022/03/30 06:48:43;;;;;;;50.10;30.87;;;6.50;54.20;;;;;;5010458;28;20200;-60
2022/03/30 06:51:09;;;;;;;57.30;32.05;;;6.50;47.10;;;;;;5009644;28;20418;-59
2022/03/30 06:53:35;;;;;;;52.60;31.50;;;6.60;42.80;;;;;;5009855;28;20374;-59
2022/03/30 06:56:00;;;;;;;52.73;30.50;;;6.70;35.10;;;;;;5002545;28;21028;-59
2022/03/30 06:58:26;;;;;;;52.67;31.20;;;6.70;37.90;;;;;;5001718;28;20573;-59
2022/03/30 07:00:52;;;;;;;53.20;33.30;;;6.70;38.70;;;;;;5006770;28;20190;-59
2022/03/30 07:03:19;;;;;;;52.97;32.07;;;6.80;39.30;;;;;;5017117;28;20187;-59
2022/03/30 07:05:44;;;;;;;51.33;29.53;;;6.80;40.90;;;;;;5006486;28;20433;-59
2022/03/30 07:10:54;;;;;;;53.30;32.53;;;6.80;29.50;;;;;;5010820;28;20616;-58
2022/03/30 07:13:22;;;;;;;53.63;30.67;;;6.80;30.10;;;;;;5014592;28;20184;-57
2022/03/30 07:15:48;;;;;;;52.50;30.58;;;6.90;31.10;;;;;;5013038;28;20180;-58
2022/03/30 07:18:13;;;;;;;46.43;29.53;;;7.00;25.80;;;;;;5010255;28;20664;-59
2022/03/30 07:20:39;;;;;;;51.77;30.80;;;7.10;26.20;;;;;;5011848;28;20462;-59
2022/03/30 07:23:05;;;;;;;56.77;30.00;;;7.20;17.40;;;;;;5012101;28;20517;-60
2022/03/30 07:25:31;;;;;;;50.40;31.30;;;7.30;11.70;;;;;;5002340;28;20445;-59
2022/03/30 07:27:59;;;;;;;48.27;29.57;;;7.30;1.50;;;;;;4992914;28;20794;-60
2022/03/30 07:30:25;;;;;;;49.83;29.80;;;7.50;1.00;;;;;;4996985;28;20427;-59
2022/03/30 07:32:53;;;;;;;46.43;29.13;;;7.50;1.00;;;;;;5004262;28;20422;-59
2022/03/30 07:35:22;;;;;;;46.73;31.17;;;7.60;1.00;;;;;;5011352;28;20422;-59
2022/03/30 07:37:48;;;;;;;57.13;31.40;;;7.70;1.00;;;;;;5011625;28;20514;-59
2022/03/30 07:40:16;;;;;;;47.97;30.90;;;7.80;1.00;;;;;;5012060;28;20540;-59
2022/03/30 07:42:42;;;;;;;48.00;29.50;;;7.80;1.00;;;;;;5009740;28;20834;-56
2022/03/30 07:45:09;;;;;;;47.77;30.07;;;7.70;1.00;;;;;;5008232;28;20517;-59
2022/03/30 07:47:35;;;;;;;46.07;29.53;;;7.80;1.00;;;;;;5007832;28;20905;-60
2022/03/30 07:50:01;;;;;;;46.97;28.60;;;7.70;1.00;;;;;;5011053;28;20433;-57
2022/03/30 07:52:27;;;;;;;47.47;29.03;;;7.70;1.00;;;;;;5012456;28;20437;-58
2022/03/30 07:54:54;;;;;;;44.40;29.50;;;7.70;1.00;;;;;;5010455;28;20462;-59
2022/03/30 07:57:26;;;;;;;45.23;29.73;;;7.60;1.00;;;;;;5012977;28;20431;-59
2022/03/30 07:59:52;;;;;;;45.60;29.80;;;7.60;1.00;;;;;;5012037;28;20560;-60
2022/03/30 08:02:18;;;;;;;44.80;27.83;;;7.60;1.00;;;;;;5010945;28;20415;-59
2022/03/30 08:04:44;;;;;;;42.60;26.97;;;7.70;1.00;;;;;;5011795;28;20427;-60
2022/03/30 08:07:10;;;;;;;40.83;26.07;;;7.70;1.00;;;;;;5011273;28;20430;-59
2022/03/30 08:09:36;;;;;;;39.80;26.30;;;7.70;1.00;;;;;;5011576;28;20426;-59
2022/03/30 08:12:01;;;;;;;40.73;25.00;;;7.70;1.00;;;;;;5011850;28;20223;-60
2022/03/30 08:14:27;;;;;;;42.47;25.70;;;7.80;1.00;;;;;;5012018;28;20187;-59
2022/03/30 08:16:52;;;;;;;32.90;22.47;;;7.90;1.00;;;;;;5012470;28;21009;-60
2022/03/30 08:19:18;;;;;;;33.40;22.60;;;7.90;1.00;;;;;;5012555;28;20340;-59
2022/03/30 08:24:28;;;;;;;37.03;22.93;;;7.90;1.00;;;;;;5007313;28;20174;-60
2022/03/30 08:26:53;;;;;;;36.90;22.03;;;7.90;1.00;;;;;;5009110;28;20454;-59
2022/03/30 08:29:19;;;;;;;33.53;21.70;;;7.90;1.00;;;;;;5007922;28;20223;-60
2022/03/30 08:31:47;;;;;;;33.43;22.20;;;7.90;1.00;;;;;;5008290;28;20202;-60
2022/03/30 08:34:14;;;;;;;38.37;23.03;;;7.80;1.00;;;;;;5008156;28;20191;-60
2022/03/30 08:36:40;;;;;;;43.70;26.70;;;7.90;1.00;;;;;;5007151;28;20512;-58
2022/03/30 08:39:11;;;;;;;37.13;25.40;;;7.90;1.00;;;;;;5002175;28;20609;-60
2022/03/30 08:41:43;;;;;;;37.93;23.90;;;7.90;1.00;;;;;;5009802;28;20492;-58
2022/03/30 08:44:09;;;;;;;37.43;24.77;;;8.00;1.00;;;;;;5023499;28;20434;-57
2022/03/30 08:46:38;;;;;;;41.73;25.90;;;7.90;1.00;;;;;;5021473;28;20428;-52
2022/03/30 08:49:04;;;;;;;38.47;25.60;;;8.10;1.00;;;;;;5004981;28;20456;-58
2022/03/30 08:51:31;;;;;;;37.77;25.30;;;8.10;1.00;;;;;;5030952;28;20441;-53
2022/03/30 08:53:57;;;;;;;39.77;25.90;;;8.00;1.00;;;;;;5022337;28;20756;-55
2022/03/30 08:56:24;;;;;;;41.87;27.83;;;8.00;1.00;;;;;;5023529;28;20422;-57
2022/03/30 08:58:54;;;;;;;36.23;24.07;;;7.90;1.00;;;;;;5009643;28;20215;-57
2022/03/30 09:01:23;;;;;;;41.07;26.20;;;8.00;1.00;;;;;;5014080;28;20431;-58
2022/03/30 09:03:57;;;;;;;40.37;24.53;;;7.90;1.00;;;;;;5030250;28;20429;-55
2022/03/30 09:06:41;;;;;;;42.53;26.70;;;7.90;1.00;;;;;;5028338;28;20751;-59
2022/03/30 09:09:07;;;;;;;39.13;24.83;;;7.90;1.00;;;;;;5018837;28;20507;-55
2022/03/30 09:11:40;;;;;;;40.10;25.47;;;7.80;1.00;;;;;;5030590;28;20757;-56
2022/03/30 09:14:07;;;;;;;38.07;25.57;;;7.90;1.00;;;;;;5030816;28;20483;-56
2022/03/30 09:16:41;;;;;;;46.17;27.07;;;7.90;1.00;;;;;;5027726;28;20432;-56
2022/03/30 09:19:09;;;;;;;46.47;29.87;;;7.80;1.00;;;;;;5022504;28;20464;-54
2022/03/30 09:21:44;;;;;;;39.70;26.03;;;7.80;1.00;;;;;;5030635;28;20460;-57
2022/03/30 09:24:10;;;;;;;37.83;25.00;;;7.70;1.00;;;;;;5028470;28;20433;-53
2022/03/30 09:26:36;;;;;;;41.43;26.80;;;7.70;1.00;;;;;;5023818;28;20427;-54
2022/03/30 09:29:04;;;;;;;42.90;25.57;;;7.70;1.00;;;;;;5009645;28;20419;-55
2022/03/30 09:31:31;;;;;;;31.03;22.47;;;7.70;1.00;;;;;;5010430;28;20430;-52
2022/03/30 09:34:05;;;;;;;37.80;24.87;;;7.70;1.00;;;;;;5008602;28;20438;-56
2022/03/30 09:36:33;;;;;;;38.77;24.97;;;7.70;1.00;;;;;;5010920;28;20468;-53
2022/03/30 09:38:59;;;;;;;38.73;24.13;;;7.70;1.00;;;;;;5010331;28;20454;-57
2022/03/30 09:41:24;;;;;;;38.10;23.70;;;7.80;1.00;;;;;;5009847;28;20415;-56
2022/03/30 09:44:02;;;;;;;35.50;23.70;;;7.80;1.00;;;;;;5007126;28;20453;-51
2022/03/30 09:46:28;;;;;;;35.50;22.23;;;7.90;1.00;;;;;;5010321;28;20658;-55
2022/03/30 09:48:54;;;;;;;39.40;23.53;;;7.90;1.00;;;;;;5011503;28;20799;-56
2022/03/30 09:51:21;;;;;;;33.00;22.03;;;8.00;1.00;;;;;;5010109;28;20423;-56
2022/03/30 09:53:48;;;;;;;37.80;23.80;;;8.10;1.00;;;;;;5020833;28;20473;-54
2022/03/30 09:56:16;;;;;;;35.10;23.67;;;8.10;1.00;;;;;;5009379;28;20457;-57
2022/03/30 09:58:43;;;;;;;38.17;24.13;;;8.00;1.00;;;;;;5027885;28;20436;-57
2022/03/30 10:01:19;;;;;;;40.83;26.00;;;7.80;1.00;;;;;;5010527;28;20432;-55
2022/03/30 10:03:51;;;;;;;35.73;23.80;;;7.80;6.70;;;;;;5024401;28;20429;-54
2022/03/30 10:06:20;;;;;;;42.30;25.03;;;7.80;1.00;;;;;;5030003;28;20413;-55
2022/03/30 10:08:48;;;;;;;37.43;24.27;;;7.80;1.00;;;;;;5029814;28;20818;-56
2022/03/30 10:11:16;;;;;;;41.30;27.27;;;7.70;1.50;;;;;;5016116;28;20947;-53
2022/03/30 10:13:44;;;;;;;42.70;26.90;;;7.60;7.00;;;;;;5029718;28;20422;-54
2022/03/30 10:16:10;;;;;;;39.50;26.10;;;7.50;10.60;;;;;;5013901;28;20787;-57
2022/03/30 10:18:37;;;;;;;43.33;27.30;;;7.50;19.20;;;;;;5013631;28;20527;-54
2022/03/30 10:21:16;;;;;;;41.87;26.47;;;7.40;30.40;;;;;;5022055;28;20508;-57
2022/03/30 10:24:05;;;;;;;43.33;26.63;;;7.50;29.20;;;;;;5027970;28;20418;-54
2022/03/30 10:26:43;;;;;;;43.03;28.30;;;7.40;29.90;;;;;;5015739;28;20442;-55
2022/03/30 10:29:11;;;;;;;43.33;25.30;;;7.40;31.50;;;;;;5022500;28;20429;-58
2022/03/30 10:31:37;;;;;;;45.20;27.20;;;7.40;34.00;;;;;;5013617;28;20458;-53
2022/03/30 10:34:23;;;;;;;41.00;27.23;;;7.50;37.50;;;;;;5008495;28;20495;-55
2022/03/30 10:37:05;;;;;;;44.90;28.63;;;7.50;40.40;;;;;;5012641;28;20441;-54
2022/03/30 10:39:31;;;;;;;48.13;29.00;;;7.50;40.40;;;;;;5021301;28;20551;-57
2022/03/30 10:42:11;;;;;;;45.73;28.10;;;7.50;48.60;;;;;;5028164;28;20505;-58
2022/03/30 10:44:43;;;;;;;45.33;28.70;;;7.50;48.90;;;;;;5024977;28;21269;-56
2022/03/30 10:47:22;;;;;;;42.00;27.90;;;7.50;41.80;;;;;;5009034;28;20500;-57
2022/03/30 10:49:54;;;;;;;41.80;27.20;;;7.50;40.40;;;;;;5010679;28;20788;-57
2022/03/30 10:52:39;;;;;;;52.93;30.30;;;7.50;51.30;;;;;;5028183;28;20425;-58
2022/03/30 10:55:13;;;;;;;44.40;26.27;;;7.50;54.00;;;;;;5019382;28;20472;-58
2022/03/30 10:57:57;;;;;;;48.77;29.10;;;7.60;51.90;;;;;;5025856;28;20556;-54
2022/03/30 11:00:27;;;;;;;51.07;29.50;;;7.60;54.50;;;;;;5028579;28;20479;-55
2022/03/30 11:03:13;;;;;;;49.83;29.50;;;7.60;55.10;;;;;;5018917;28;20486;-56
2022/03/30 11:05:43;;;;;;;45.17;29.63;;;7.70;55.80;;;;;;5020085;28;20456;-56
2022/03/30 11:08:31;;;;;;;45.90;28.73;;;7.70;52.90;;;;;;5028998;28;20437;-58
2022/03/30 11:11:00;;;;;;;48.40;28.70;;;7.80;40.50;;;;;;5015743;28;20513;-57
2022/03/30 11:13:26;;;;;;;53.10;28.73;;;7.70;45.90;;;;;;5012499;28;20409;-57
2022/03/30 11:15:59;;;;;;;46.63;29.00;;;7.70;43.30;;;;;;5027225;28;20446;-56
2022/03/30 11:18:26;;;;;;;45.83;29.23;;;7.70;40.90;;;;;;5009296;28;20436;-57
2022/03/30 11:21:12;;;;;;;45.23;28.80;;;7.60;47.80;;;;;;5017710;28;20469;-57
2022/03/30 11:23:58;;;;;;;47.90;27.77;;;7.50;58.20;;;;;;5003705;28;20522;-55
2022/03/30 11:26:44;;;;;;;46.27;26.90;;;7.50;64.70;;;;;;5017780;28;20417;-58
2022/03/30 11:29:40;;;;;;;48.87;30.13;;;7.50;67.00;;;;;;5017258;28;20583;-58
2022/03/30 11:32:24;;;;;;;48.13;29.20;;;7.50;72.70;;;;;;5008225;28;20435;-57
2022/03/30 11:34:55;;;;;;;40.97;26.60;;;7.50;62.90;;;;;;5015819;28;20421;-57
2022/03/30 11:37:49;;;;;;;44.10;27.07;;;7.40;74.30;;;;;;5028812;28;20413;-54
2022/03/30 11:40:20;;;;;;;43.17;27.10;;;7.50;71.80;;;;;;4989369;28;20474;-54
2022/03/30 11:42:51;;;;;;;44.13;26.43;;;7.40;86.10;;;;;;5019488;28;20932;-56
2022/03/30 11:45:20;;;;;;;44.97;26.70;;;7.40;91.80;;;;;;5028563;28;20425;-53
2022/03/30 11:48:02;;;;;;;40.20;24.40;;;7.40;97.20;;;;;;5028784;28;20424;-56
2022/03/30 11:50:31;;;;;;;45.83;26.53;;;7.40;99.90;;;;;;5010521;28;20442;-55
2022/03/30 11:53:00;;;;;;;37.93;23.03;;;7.50;99.90;;;;;;5006306;28;20453;-54
2022/03/30 11:55:28;;;;;;;34.47;20.50;;;7.50;97.60;;;;;;5005858;28;20513;-55
2022/03/30 11:57:53;;;;;;;32.10;18.93;;;7.50;95.80;;;;;;5025564;28;20544;-56
2022/03/30 12:00:22;;;;;;;29.30;18.57;;;7.50;95.60;;;;;;5002826;28;20596;-58
2022/03/30 12:02:48;;;;;;;28.03;16.30;;;7.50;88.90;;;;;;5019054;28;20210;-53
2022/03/30 12:05:13;;;;;;;25.23;15.80;;;7.50;79.40;;;;;;5030508;28;20405;-57
2022/03/30 12:07:40;;;;;;;21.53;15.00;;;7.50;74.40;;;;;;5013018;28;20646;-55
2022/03/30 12:10:15;;;;;;;27.70;15.83;;;7.60;71.90;;;;;;5020094;28;20182;-55
2022/03/30 12:12:42;;;;;;;22.37;15.13;;;7.70;78.60;;;;;;5031919;28;20941;-54
2022/03/30 12:15:26;;;;;;;21.53;14.30;;;7.70;71.90;;;;;;5030108;28;20425;-51
2022/03/30 12:17:57;;;;;;;20.53;13.90;;;7.90;81.30;;;;;;5030473;28;20421;-54
2022/03/30 12:20:27;;;;;;;24.07;14.57;;;7.90;70.60;;;;;;5026055;28;20519;-55
2022/03/30 12:23:03;;;;;;;21.70;15.07;;;7.90;68.10;;;;;;5011504;28;20447;-53
2022/03/30 12:25:35;;;;;;;22.70;13.80;;;7.90;80.30;;;;;;5012485;28;20395;-52
2022/03/30 12:28:02;;;;;;;19.57;13.47;;;7.90;66.10;;;;;;5012457;28;20494;-55
2022/03/30 12:30:31;;;;;;;23.27;13.63;;;7.70;59.60;;;;;;5011176;28;20477;-56
2022/03/30 12:32:57;;;;;;;24.33;14.90;;;7.70;70.50;;;;;;5011853;28;20414;-55
2022/03/30 12:35:24;;;;;;;20.47;12.40;;;7.70;74.10;;;;;;5012101;28;20423;-51
2022/03/30 12:38:02;;;;;;;20.37;13.27;;;7.70;89.10;;;;;;5011095;28;20439;-54
2022/03/30 12:40:35;;;;;;;20.13;12.17;;;7.70;66.40;;;;;;5011847;28;20454;-54
2022/03/30 12:43:00;;;;;;;25.20;14.13;;;7.60;73.70;;;;;;5002211;28;20439;-53
2022/03/30 12:45:26;;;;;;;19.57;14.17;;;7.50;70.80;;;;;;4992184;28;20404;-53
2022/03/30 12:47:59;;;;;;;22.93;13.73;;;7.40;77.90;;;;;;4992117;28;20202;-51
2022/03/30 12:50:33;;;;;;;21.23;13.07;;;7.40;80.10;;;;;;5010617;28;20269;-53
2022/03/30 12:53:17;;;;;;;20.40;13.57;;;7.50;87.00;;;;;;5013747;28;20739;-66